createdAt,value
2022-11-25T00:00:02.139Z,54.95
2022-11-25T00:02:44.062Z,48.50
2022-11-25T00:05:11.113Z,47.67
2022-11-25T00:07:38.959Z,52.65
2022-11-25T00:10:06.866Z,46.17
2022-11-25T00:12:33.602Z,53.22
2022-11-25T00:15:00.254Z,49.95
2022-11-25T00:17:26.883Z,52.22
2022-11-25T07:06:20.628Z,43.42
2022-11-25T07:08:48.452Z,54.05
2022-11-25T07:11:21.035Z,52.58
2022-11-25T07:13:48.645Z,49.08
2022-11-25T07:16:15.364Z,52.97
2022-11-25T07:18:42.275Z,43.95
2022-11-25T07:21:12.901Z,59.63
2022-11-25T07:23:40.886Z,58.15
2022-11-25T07:26:13.008Z,57.10
2022-11-25T07:28:40.349Z,47.67
2022-11-25T07:31:27.787Z,54.08
2022-11-25T07:34:02.700Z,51.85
2022-11-25T07:36:31.666Z,49.70
2022-11-25T07:39:00.447Z,47.40
2022-11-25T07:41:30.858Z,59.08
2022-11-25T07:44:00.503Z,44.90
2022-11-25T07:46:31.678Z,48.20
2022-11-25T07:49:01.488Z,44.63
2022-11-25T07:51:30.490Z,37.65
2022-11-25T07:53:59.189Z,45.75
2022-11-25T07:56:26.347Z,49.55
2022-11-25T07:58:53.527Z,39.47
2022-11-25T08:01:20.551Z,33.00
2022-11-25T08:03:49.333Z,35.72
2022-11-25T08:06:18.908Z,38.72
2022-11-25T08:08:46.539Z,35.83
2022-11-25T08:11:34.536Z,31.85
2022-11-25T08:14:01.540Z,37.17
2022-11-25T08:16:33.033Z,36.95
2022-11-25T08:19:02.735Z,35.60
2022-11-25T08:21:29.529Z,39.60
2022-11-25T08:23:56.669Z,41.00
2022-11-25T08:26:26.405Z,44.20
2022-11-25T08:28:54.274Z,40.40
2022-11-25T08:31:24.032Z,43.25
2022-11-25T08:33:52.980Z,43.53
2022-11-25T08:36:20.469Z,42.33
2022-11-25T08:38:49.589Z,29.55
2022-11-25T08:41:19.588Z,36.63
2022-11-25T08:43:46.363Z,43.38
2022-11-25T08:46:16.996Z,31.13
2022-11-25T08:48:44.193Z,44.20
2022-11-25T08:51:17.636Z,35.92
2022-11-25T08:53:45.427Z,42.88
2022-11-25T08:56:12.676Z,37.38
2022-11-25T08:58:39.422Z,53.72
2022-11-25T09:01:06.913Z,43.95
2022-11-25T09:03:35.868Z,51.53
2022-11-25T09:06:03.360Z,36.75
2022-11-25T09:08:31.195Z,43.80
2022-11-25T09:10:59.022Z,40.30
2022-11-25T09:13:26.353Z,45.33
2022-11-25T09:15:53.723Z,35.47
2022-11-25T09:18:25.615Z,49.83
2022-11-25T09:20:53.501Z,51.88
2022-11-25T09:23:21.108Z,40.50
2022-11-25T09:25:56.257Z,37.95
2022-11-25T09:28:24.043Z,48.05
2022-11-25T09:31:01.566Z,47.17
2022-11-25T09:33:31.476Z,37.65
2022-11-25T09:36:00.914Z,41.53
2022-11-25T09:38:27.865Z,42.05
2022-11-25T09:41:04.974Z,40.95
2022-11-25T09:44:15.638Z,44.90
2022-11-25T09:46:42.589Z,46.13
2022-11-25T09:49:40.411Z,39.58
2022-11-25T09:52:20.991Z,51.63
2022-11-25T09:54:52.624Z,52.03
2022-11-25T09:57:32.251Z,56.30
2022-11-25T10:00:10.435Z,59.60
2022-11-25T10:02:40.138Z,44.63
2022-11-25T10:05:21.131Z,45.85
2022-11-25T10:07:52.824Z,43.80
2022-11-25T10:10:43.065Z,53.10
2022-11-25T10:13:18.674Z,47.03
2022-11-25T10:15:49.550Z,45.30
2022-11-25T10:18:29.637Z,51.78
2022-11-25T10:20:56.360Z,53.90
2022-11-25T10:23:34.285Z,46.30
2022-11-25T10:26:23.115Z,51.92
2022-11-25T10:29:06.530Z,38.67
2022-11-25T10:31:36.692Z,48.55
2022-11-25T10:34:23.732Z,37.25
2022-11-25T10:36:52.809Z,50.35
2022-11-25T10:39:27.036Z,48.97
2022-11-25T10:42:08.011Z,39.75
2022-11-25T10:44:38.252Z,37.67
2022-11-25T10:47:33.073Z,43.60
2022-11-25T10:50:23.091Z,40.38
2022-11-25T10:53:04.921Z,37.17
2022-11-25T10:55:33.553Z,41.28
2022-11-25T10:58:25.663Z,38.97
2022-11-25T11:01:14.231Z,51.03
2022-11-25T11:03:43.606Z,44.08
2022-11-25T11:06:32.014Z,40.97
2022-11-25T11:08:59.036Z,48.20
2022-11-25T11:11:25.941Z,49.58
2022-11-25T11:14:20.566Z,37.88
2022-11-25T11:16:55.473Z,41.10
2022-11-25T11:19:30.897Z,37.50
2022-11-25T11:22:14.228Z,45.05
2022-11-25T11:24:42.482Z,45.55
2022-11-25T11:27:23.953Z,38.03
2022-11-25T11:30:13.975Z,38.20
2022-11-25T11:32:44.755Z,41.20
2022-11-25T11:35:22.733Z,39.03
2022-11-25T11:37:53.366Z,38.80
2022-11-25T11:40:32.152Z,36.30
2022-11-25T11:43:30.450Z,31.40
2022-11-25T11:46:44.645Z,31.23
2022-11-25T11:49:39.403Z,34.33
2022-11-25T11:52:06.176Z,30.77
2022-11-25T11:54:50.709Z,33.35
2022-11-25T11:57:39.894Z,37.40
2022-11-25T12:00:11.613Z,34.53
2022-11-25T12:03:19.073Z,36.55
2022-11-25T12:05:47.974Z,33.08
2022-11-25T12:08:40.900Z,32.53
2022-11-25T12:11:15.023Z,26.75
2022-11-25T12:13:41.625Z,34.05
2022-11-25T12:16:19.239Z,27.17
2022-11-25T12:19:02.220Z,27.02
2022-11-25T12:21:41.619Z,27.02
2022-11-25T12:24:37.876Z,37.90
2022-11-25T12:27:26.411Z,32.28
2022-11-25T12:30:11.890Z,26.30
2022-11-25T12:32:48.491Z,26.10
2022-11-25T12:35:27.454Z,28.35
2022-11-25T12:38:03.245Z,25.50
2022-11-25T12:41:12.104Z,27.33
2022-11-25T12:43:44.753Z,28.38
2022-11-25T12:46:21.030Z,25.80
2022-11-25T12:48:48.080Z,30.42
2022-11-25T12:51:25.686Z,25.30
2022-11-25T12:54:36.743Z,27.30
2022-11-25T12:57:49.074Z,33.63
2022-11-25T13:00:47.295Z,29.77
2022-11-25T13:03:39.812Z,32.53
2022-11-25T13:06:16.679Z,34.53
2022-11-25T13:09:19.203Z,35.20
2022-11-25T13:12:27.983Z,36.13
2022-11-25T13:15:31.170Z,39.35
2022-11-25T13:18:03.169Z,37.53
2022-11-25T13:20:29.848Z,38.88
2022-11-25T13:23:07.631Z,37.28
2022-11-25T13:25:35.683Z,50.40
2022-11-25T13:28:26.728Z,42.05
2022-11-25T13:30:53.648Z,41.25
2022-11-25T13:33:25.640Z,40.35
2022-11-25T13:35:56.737Z,43.92
2022-11-25T13:38:29.451Z,43.90
2022-11-25T13:41:01.830Z,52.65
2022-11-25T13:43:28.657Z,43.80
2022-11-25T13:45:56.433Z,42.05
2022-11-25T13:48:27.975Z,51.60
2022-11-25T13:51:23.440Z,27.77
2022-11-25T13:54:06.500Z,26.75
2022-11-25T13:56:37.475Z,27.70
2022-11-25T13:59:10.258Z,24.42
2022-11-25T14:01:39.811Z,31.77
2022-11-25T14:04:15.568Z,22.52
2022-11-25T14:07:30.043Z,21.60
2022-11-25T14:10:02.792Z,24.50
2022-11-25T14:12:35.369Z,24.00
2022-11-25T14:15:17.811Z,28.85
2022-11-25T14:18:02.380Z,22.33
2022-11-25T14:20:35.043Z,28.15
2022-11-25T14:23:49.455Z,25.38
2022-11-25T14:26:48.050Z,34.05
2022-11-25T14:29:17.631Z,36.78
2022-11-25T14:32:15.283Z,25.42
2022-11-25T14:34:56.835Z,28.20
2022-11-25T14:37:43.995Z,21.33
2022-11-25T14:40:33.614Z,21.10
2022-11-25T14:43:07.519Z,21.23
2022-11-25T14:45:36.324Z,26.38
2022-11-25T14:48:30.820Z,21.25
2022-11-25T14:51:11.902Z,22.60
2022-11-25T14:53:48.102Z,23.63
2022-11-25T14:56:22.131Z,20.77
2022-11-25T14:58:52.214Z,26.85
2022-11-25T15:01:27.393Z,21.58
2022-11-25T15:04:17.487Z,34.30
2022-11-25T15:06:56.955Z,25.85
2022-11-25T15:09:25.840Z,44.20
2022-11-25T15:12:02.145Z,22.75
2022-11-25T15:14:38.738Z,25.95
2022-11-25T15:17:20.578Z,18.35
2022-11-25T15:19:47.727Z,23.92
2022-11-25T15:22:23.951Z,21.40
2022-11-25T15:24:55.799Z,20.98
2022-11-25T15:27:27.408Z,30.23
2022-11-25T15:29:56.460Z,32.92
2022-11-25T15:32:29.532Z,28.15
2022-11-25T15:34:58.079Z,25.17
2022-11-25T15:37:24.969Z,23.10
2022-11-25T15:40:29.539Z,22.73
2022-11-25T15:43:01.564Z,27.50
2022-11-25T15:45:37.315Z,27.08
2022-11-25T15:48:04.502Z,29.95
2022-11-25T15:50:34.190Z,32.83
2022-11-25T15:53:01.577Z,27.70
2022-11-25T15:55:36.035Z,30.98
2022-11-25T15:58:22.171Z,38.78
2022-11-25T16:01:06.368Z,32.00
2022-11-25T16:03:35.324Z,32.63
2022-11-25T16:06:02.934Z,31.98
2022-11-25T16:08:37.202Z,34.20
2022-11-25T16:11:12.712Z,40.00
2022-11-25T16:13:39.768Z,29.40
2022-11-25T16:16:28.667Z,32.75
2022-11-25T16:18:57.616Z,35.45
2022-11-25T16:21:38.628Z,34.85
2022-11-25T16:24:05.388Z,29.17
2022-11-25T16:26:38.414Z,37.22
2022-11-25T16:29:20.167Z,39.03
2022-11-25T16:31:46.849Z,40.55
2022-11-25T16:34:15.703Z,53.97
2022-11-25T16:36:42.808Z,39.70
2022-11-25T16:39:09.502Z,32.55
2022-11-25T16:41:36.569Z,43.25
2022-11-25T16:44:16.522Z,36.90
2022-11-25T16:46:43.190Z,30.17
2022-11-25T16:49:17.669Z,38.70
2022-11-25T16:51:44.711Z,42.28
2022-11-25T16:54:12.438Z,35.95
2022-11-25T16:56:41.957Z,48.90
2022-11-25T16:59:40.827Z,44.28
2022-11-25T17:02:26.137Z,80.78
2022-11-25T17:04:52.829Z,43.35
2022-11-25T17:07:35.716Z,44.50
2022-11-25T17:10:03.092Z,42.95
2022-11-25T17:12:32.358Z,37.40
2022-11-25T17:15:01.079Z,42.90
2022-11-25T17:17:28.868Z,38.35
2022-11-25T17:19:55.580Z,44.53
2022-11-25T17:22:27.599Z,44.25
2022-11-25T17:24:54.585Z,38.42
2022-11-25T17:27:30.558Z,40.53
2022-11-25T17:30:00.642Z,41.38
2022-11-25T17:32:27.981Z,43.50
2022-11-25T17:34:54.735Z,35.58
2022-11-25T17:37:23.855Z,40.38
2022-11-25T17:39:52.715Z,38.60
2022-11-25T17:42:25.326Z,41.72
2022-11-25T17:44:54.252Z,44.00
2022-11-25T17:47:21.346Z,44.33
2022-11-25T17:49:49.353Z,39.65
2022-11-25T17:52:16.095Z,43.97
2022-11-25T17:54:42.947Z,42.10
2022-11-25T17:57:19.102Z,43.05
2022-11-25T17:59:45.778Z,48.85
2022-11-25T18:02:21.045Z,44.67
2022-11-25T18:04:48.735Z,47.58
2022-11-25T18:07:15.467Z,44.55
2022-11-25T18:09:44.329Z,43.60
2022-11-25T18:12:20.279Z,47.50
2022-11-25T18:14:47.264Z,42.75
2022-11-25T18:17:18.671Z,44.35
2022-11-25T18:19:49.807Z,49.85
2022-11-25T18:22:19.488Z,47.75
2022-11-25T18:24:46.267Z,41.55
2022-11-25T18:27:21.962Z,43.80
2022-11-25T18:29:48.978Z,38.60
2022-11-25T18:32:15.634Z,41.80
2022-11-25T18:34:42.359Z,39.22
2022-11-25T18:37:11.463Z,46.40
2022-11-25T18:39:38.488Z,41.72
2022-11-25T18:42:07.282Z,45.40
2022-11-25T18:44:43.540Z,50.42
2022-11-25T18:47:13.680Z,44.17
2022-11-25T18:49:40.417Z,51.80
2022-11-25T18:52:07.144Z,54.35
2022-11-25T18:54:33.786Z,49.95
2022-11-25T18:57:00.552Z,49.08
2022-11-25T18:59:34.122Z,58.95
2022-11-25T19:02:01.400Z,59.75
2022-11-25T19:04:28.685Z,54.72
2022-11-25T19:06:56.421Z,51.47
2022-11-25T19:09:23.169Z,51.53
2022-11-25T19:11:52.947Z,48.83
2022-11-25T19:14:30.186Z,57.08
2022-11-25T19:17:00.846Z,51.90
2022-11-25T19:19:28.594Z,56.88
2022-11-25T19:21:55.402Z,52.35
2022-11-25T19:24:22.216Z,61.05
2022-11-25T19:26:51.290Z,51.33
2022-11-25T19:29:42.188Z,49.20
2022-11-25T19:32:26.466Z,71.15
2022-11-25T19:35:04.197Z,60.42
2022-11-25T19:37:31.417Z,59.33
2022-11-25T19:39:58.591Z,63.88
2022-11-25T19:42:31.812Z,67.07
2022-11-25T19:44:58.523Z,68.15
2022-11-25T19:47:29.294Z,68.22
2022-11-25T19:50:00.286Z,69.85
2022-11-25T19:52:41.062Z,69.57
2022-11-25T19:55:18.245Z,62.13
2022-11-25T20:00:14.679Z,61.23
2022-11-25T20:02:42.466Z,58.20
2022-11-25T20:05:10.273Z,69.68
2022-11-25T20:07:37.730Z,54.17
2022-11-25T20:10:20.651Z,60.90
2022-11-25T20:12:48.247Z,66.50
2022-11-25T20:15:15.024Z,59.95
2022-11-25T20:17:45.888Z,73.95
2022-11-25T20:20:15.383Z,67.40
2022-11-25T20:22:51.219Z,68.15
2022-11-25T20:25:19.064Z,70.65
2022-11-25T20:27:45.973Z,73.97
2022-11-25T20:30:24.734Z,69.07
2022-11-25T20:32:52.051Z,63.92
2022-11-25T20:35:19.743Z,67.88
2022-11-25T20:38:00.660Z,69.95
2022-11-25T20:40:38.327Z,74.20
2022-11-25T20:43:05.568Z,71.78
2022-11-25T20:45:32.300Z,68.95
2022-11-25T20:47:59.139Z,65.13
2022-11-25T20:50:28.998Z,75.90
2022-11-25T20:52:55.691Z,82.95
2022-11-25T20:55:24.697Z,76.35
2022-11-25T20:57:52.231Z,68.65
2022-11-25T21:00:28.211Z,68.00
2022-11-25T21:02:57.275Z,65.13
2022-11-25T21:05:26.264Z,51.30
2022-11-25T21:07:54.728Z,56.38
2022-11-25T21:10:27.107Z,53.25
2022-11-25T21:12:54.957Z,53.42
2022-11-25T21:15:24.443Z,60.45
2022-11-25T21:17:51.598Z,67.25
2022-11-25T21:20:21.838Z,70.95
2022-11-25T21:22:53.571Z,79.90
2022-11-25T21:25:22.399Z,81.88
2022-11-25T21:27:50.969Z,79.75
2022-11-25T21:30:23.208Z,67.85
2022-11-25T21:32:53.440Z,80.88
2022-11-25T21:35:20.502Z,79.32
2022-11-25T21:37:47.480Z,83.72
2022-11-25T21:40:40.862Z,93.40
2022-11-25T21:43:21.607Z,80.50
2022-11-25T21:45:52.164Z,82.95
2022-11-25T21:48:24.982Z,87.47
2022-11-25T21:50:52.220Z,77.80
2022-11-25T21:53:19.789Z,83.25
2022-11-25T21:55:47.175Z,81.57
2022-11-25T21:58:19.319Z,78.07
2022-11-25T22:00:52.901Z,84.88
2022-11-25T22:03:20.643Z,80.65
2022-11-25T22:05:47.917Z,75.72
2022-11-25T22:08:14.671Z,83.70
